Hovedside
METAR-TAF:

METAR-TAF

Lufthavner :

Åbo lufthavn

Åbo, Finland

breddegrad: 60-31N, lengdegrad: 022-16E, høyde over havet: 49 m

Gjeldene værobservasjon

Denne rapporten ble laget for 13 minutter siden, klokken 04:50 UTC
Vind 9 kt fra Øst
Temperatur 10°C
Luftfuktighet 53%
Trykk 1022 hPa
Sikt 10 km eller mer
ingen skyer under 1500 m og ingen bygeskyer

METAR: EFTU 250450Z AUTO 09009KT CAVOK 10/01 Q1022

Tid: 08:03 (05:03 UTC)

Varsel

Denne rapporten ble laget for 2 timer og 29 minutter siden, klokken 02:34 UTC
Varsel gyldig fra 25. klokken 03 UTC til 26. klokken 03 UTC
Vind 9 kt fra Øst
Sikt 10 km eller mer
ingen skyer under 1500 m og ingen bygeskyer

TAF: EFTU 250234Z 2503/2603 08009KT CAVOK

Værobservasjoner og værvarsel for over 4000 flyplasser (METAR- og TAF-rapporter).

Tilgjengelige stasjoner er representert av de røde og gule prikkene på kartet.

Hold musepekeren over prikken for å se navnet på stasjonen.

Klikk så for å se værobservasjoner og -varsler.

For å forandre kartet kan du klikke på den grønne knappen med svart kryss for å zoome inn, på den grønne knappen med strek for å zoome ut, eller på de grønne pilene for å se tilstøtende kart.


METAR-TAF: